Main page
METAR-TAF:

METAR-TAF

Airports :

Glasgow Airport

Glasgow, Scotland

latitude: 55-52N, longitude: 004-26W, elevation: 8 m

Current weather observation

The report was made 29 minutes ago, at 20:50 UTC
Wind 11 kt from the North/Northeast
Temperature 4°C
Humidity 60%
Pressure 1045 hPa
Visibility 10 km or more

METAR: EGPF 282050Z AUTO 03011KT 9999 NCD 04/M03 Q1045

Time: 21:19 (21:19 UTC)

Forecast

The report was made 4 hours and 18 minutes ago, at 17:01 UTC
Forecast valid from 28 at 18 UTC to 29 at 18 UTC
Wind 9 kt from the North/Northeast
Visibility 10 km or more
Scattered clouds at a height of 4500 ft
Probability 30% :
Temporary
from 28 at 18 UTC to 28 at 20 UTC
Wind 15 kt from the Northeast with gusts up to 25 kt

TAF: EGPF 281701Z 2818/2918 03009KT 9999 SCT045 PROB30 TEMPO 2818/2820 04015G25KT

Weather observations and forecasts of more than 4000 airports (METAR and TAF reports).

The available stations are represented by yellow and red dots on the map.

Hover mouse over dot to see the name of the station.

Then click to see weather observations and forecasts.

To change the map : click on the green buttons with a black cross to zoom in, on the green button with a dash to zoom out, or on the green arrows for adjacent maps.


METAR-TAF: